createdAt,value
2022-10-18T00:02:11.169Z,16.34
2022-10-18T00:04:37.970Z,16.29
2022-10-18T00:07:04.659Z,16.20
2022-10-18T00:09:31.431Z,16.26
2022-10-18T00:11:58.004Z,16.25
2022-10-18T00:14:24.551Z,16.19
2022-10-18T00:16:51.046Z,16.24
2022-10-18T00:19:18.946Z,16.26
2022-10-18T00:24:16.855Z,16.13
2022-10-18T00:26:43.469Z,16.26
2022-10-18T00:29:13.812Z,16.25
2022-10-18T00:31:40.321Z,16.23
2022-10-18T00:34:10.006Z,16.21
2022-10-18T00:36:38.012Z,16.20
2022-10-18T00:39:06.158Z,16.20
2022-10-18T00:41:34.248Z,16.09
2022-10-18T00:44:04.299Z,16.21
2022-10-18T00:46:32.496Z,16.24
2022-10-18T00:49:01.799Z,16.26
2022-10-18T00:51:32.481Z,16.26
2022-10-18T00:54:00.480Z,16.21
2022-10-18T00:56:27.022Z,16.17
2022-10-18T00:58:53.931Z,16.15
2022-10-18T01:01:24.416Z,16.13
2022-10-18T01:03:54.450Z,16.11
2022-10-18T01:06:20.972Z,16.11
2022-10-18T01:09:00.636Z,16.12
2022-10-18T01:11:41.815Z,16.12
2022-10-18T01:14:18.685Z,16.09
2022-10-18T01:16:53.941Z,16.09
2022-10-18T01:20:02.410Z,16.04
2022-10-18T01:22:34.572Z,16.05
2022-10-18T01:25:16.281Z,16.04
2022-10-18T01:27:52.976Z,16.04
2022-10-18T01:30:47.965Z,16.01
2022-10-18T01:33:24.356Z,16.02
2022-10-18T01:35:57.005Z,16.02
2022-10-18T01:38:24.646Z,16.03
2022-10-18T01:40:52.730Z,16.04
2022-10-18T01:43:21.362Z,16.04
2022-10-18T01:45:49.689Z,16.00
2022-10-18T01:48:17.243Z,16.04
2022-10-18T01:50:43.851Z,15.98
2022-10-18T01:53:25.561Z,16.04
2022-10-18T01:55:56.030Z,16.01
2022-10-18T01:58:30.755Z,16.07
2022-10-18T02:01:07.473Z,16.08
2022-10-18T02:03:37.637Z,16.07
2022-10-18T02:06:09.480Z,16.04
2022-10-18T02:08:42.534Z,15.94
2022-10-18T02:11:13.241Z,16.04
2022-10-18T02:13:43.959Z,16.04
2022-10-18T02:16:14.406Z,15.99
2022-10-18T02:18:45.392Z,15.97
2022-10-18T02:21:15.706Z,15.95
2022-10-18T02:23:44.895Z,15.96
2022-10-18T02:26:11.762Z,15.86
2022-10-18T02:28:38.782Z,15.93
2022-10-18T02:31:13.355Z,15.92
2022-10-18T02:33:48.982Z,15.94
2022-10-18T02:36:23.834Z,15.94
2022-10-18T02:38:55.926Z,15.94
2022-10-18T02:41:24.201Z,15.93
2022-10-18T02:43:50.731Z,15.95
2022-10-18T02:46:17.518Z,15.96
2022-10-18T02:48:45.851Z,15.96
2022-10-18T02:51:12.405Z,15.99
2022-10-18T02:53:38.912Z,15.97
2022-10-18T02:56:05.817Z,15.98
2022-10-18T02:58:32.355Z,15.92
2022-10-18T03:00:58.966Z,15.90
2022-10-18T03:03:25.536Z,15.85
2022-10-18T03:05:53.431Z,15.88
2022-10-18T03:08:19.980Z,15.76
2022-10-18T03:10:47.011Z,15.91
2022-10-18T03:13:13.541Z,15.89
2022-10-18T03:15:40.210Z,15.95
2022-10-18T03:18:06.749Z,15.98
2022-10-18T03:20:33.827Z,15.92
2022-10-18T03:23:01.814Z,15.96
2022-10-18T03:25:28.386Z,15.90
2022-10-18T03:27:54.929Z,15.87
2022-10-18T03:30:21.517Z,15.91
2022-10-18T03:32:48.070Z,15.95
2022-10-18T03:35:14.643Z,15.94
2022-10-18T03:37:41.175Z,15.97
2022-10-18T03:40:10.007Z,15.98
2022-10-18T03:42:36.699Z,16.03
2022-10-18T03:45:04.080Z,16.04
2022-10-18T03:47:30.806Z,16.07
2022-10-18T03:49:57.547Z,16.07
2022-10-18T03:52:24.378Z,16.09
2022-10-18T03:54:50.955Z,16.10
2022-10-18T03:57:18.793Z,16.11
2022-10-18T03:59:45.348Z,16.01
2022-10-18T04:02:11.836Z,16.10
2022-10-18T04:04:38.369Z,16.10
2022-10-18T04:07:05.291Z,16.08
2022-10-18T04:09:31.894Z,16.08
2022-10-18T04:11:58.423Z,16.10
2022-10-18T04:14:27.278Z,16.04
2022-10-18T04:16:53.771Z,16.11
2022-10-18T04:19:20.350Z,16.02
2022-10-18T04:21:46.888Z,16.07
2022-10-18T04:24:13.518Z,16.06
2022-10-18T04:26:39.994Z,16.07
2022-10-18T04:29:06.750Z,16.04
2022-10-18T04:31:34.683Z,16.03
2022-10-18T04:34:01.286Z,16.02
2022-10-18T04:36:27.802Z,15.99
2022-10-18T04:38:54.370Z,15.97
2022-10-18T04:41:20.887Z,15.97
2022-10-18T04:43:47.520Z,15.97
2022-10-18T04:46:14.019Z,15.95
2022-10-18T04:48:42.025Z,15.84
2022-10-18T04:51:08.553Z,15.91
2022-10-18T04:53:35.102Z,15.91
2022-10-18T04:56:01.661Z,15.91
2022-10-18T04:58:28.294Z,15.16
2022-10-18T05:00:54.930Z,15.91
2022-10-18T05:03:21.487Z,15.88
2022-10-18T05:06:01.448Z,15.85
2022-10-18T05:08:29.376Z,15.90
2022-10-18T05:10:56.018Z,15.91
2022-10-18T05:13:22.566Z,15.91
2022-10-18T05:15:49.085Z,15.91
2022-10-18T05:18:15.823Z,15.91
2022-10-18T05:20:42.349Z,15.89
2022-10-18T05:23:10.529Z,15.82
2022-10-18T05:25:38.253Z,15.90
2022-10-18T05:28:10.950Z,15.85
2022-10-18T05:30:42.860Z,15.84
2022-10-18T05:33:09.688Z,15.87
2022-10-18T05:35:36.680Z,15.90
2022-10-18T05:38:04.231Z,15.90
2022-10-18T05:40:32.290Z,15.91
2022-10-18T05:42:58.873Z,15.92
2022-10-18T05:45:25.559Z,15.93
2022-10-18T05:47:52.083Z,15.57
2022-10-18T05:50:18.667Z,15.94
2022-10-18T05:52:45.186Z,15.94
2022-10-18T05:55:11.742Z,15.94
2022-10-18T05:57:39.596Z,15.92
2022-10-18T06:00:07.200Z,15.89
2022-10-18T06:02:38.347Z,15.89
2022-10-18T06:05:05.275Z,15.84
2022-10-18T06:07:32.047Z,15.82
2022-10-18T06:09:58.793Z,15.82
2022-10-18T06:12:25.334Z,15.81
2022-10-18T06:14:53.295Z,15.81
2022-10-18T06:17:19.802Z,15.80
2022-10-18T06:19:46.351Z,15.81
2022-10-18T06:22:12.848Z,15.82
2022-10-18T06:24:39.427Z,15.83
2022-10-18T06:29:38.274Z,15.82
2022-10-18T06:32:07.561Z,15.80
2022-10-18T06:34:34.458Z,15.79
2022-10-18T06:37:01.110Z,15.73
2022-10-18T06:39:27.700Z,15.77
2022-10-18T06:41:54.220Z,15.62
2022-10-18T06:44:21.521Z,15.79
2022-10-18T06:46:49.103Z,15.76
2022-10-18T06:49:19.133Z,15.78
2022-10-18T06:51:46.240Z,15.78
2022-10-18T06:54:18.115Z,15.78
2022-10-18T06:56:45.589Z,15.80
2022-10-18T06:59:12.259Z,15.81
2022-10-18T07:01:38.948Z,15.82
2022-10-18T07:04:05.541Z,15.83
2022-10-18T07:06:33.454Z,15.84
2022-10-18T07:08:59.982Z,15.86
2022-10-18T07:11:27.266Z,15.88
2022-10-18T07:13:58.293Z,15.89
2022-10-18T07:16:24.849Z,15.89
2022-10-18T07:18:51.806Z,15.90
2022-10-18T07:21:20.055Z,15.95
2022-10-18T07:23:48.495Z,15.98
2022-10-18T07:26:17.731Z,16.01
2022-10-18T07:28:47.133Z,16.02
2022-10-18T07:31:13.818Z,16.05
2022-10-18T07:33:40.589Z,16.07
2022-10-18T07:36:09.193Z,16.11
2022-10-18T07:38:35.999Z,16.15
2022-10-18T07:41:05.478Z,16.21
2022-10-18T07:43:32.892Z,16.22
2022-10-18T07:46:01.488Z,16.30
2022-10-18T07:48:28.202Z,16.35
2022-10-18T07:50:57.525Z,16.38
2022-10-18T07:53:24.145Z,16.41
2022-10-18T07:55:50.810Z,16.44
2022-10-18T07:58:18.661Z,16.49
2022-10-18T08:00:45.212Z,16.53
2022-10-18T08:03:11.703Z,16.60
2022-10-18T08:05:38.299Z,16.67
2022-10-18T08:08:07.897Z,16.73
2022-10-18T08:10:35.611Z,16.78
2022-10-18T08:13:02.113Z,16.85
2022-10-18T08:15:29.988Z,16.84
2022-10-18T08:17:56.493Z,16.99
2022-10-18T08:20:31.344Z,17.06
2022-10-18T08:23:00.456Z,17.07
2022-10-18T08:25:27.685Z,17.20
2022-10-18T08:27:54.318Z,17.23
2022-10-18T08:30:20.841Z,17.33
2022-10-18T08:32:48.925Z,17.40
2022-10-18T08:35:15.461Z,17.48
2022-10-18T08:37:42.024Z,17.56
2022-10-18T08:40:12.693Z,17.70
2022-10-18T08:42:58.921Z,17.77
2022-10-18T08:45:42.084Z,17.88
2022-10-18T08:48:19.886Z,17.99
2022-10-18T08:50:46.849Z,18.09
2022-10-18T08:53:19.074Z,18.10
2022-10-18T08:55:49.703Z,18.13
2022-10-18T08:58:19.801Z,18.22
2022-10-18T09:00:54.478Z,18.26
2022-10-18T09:03:38.308Z,18.17
2022-10-18T09:06:19.844Z,18.15
2022-10-18T09:09:01.146Z,18.26
2022-10-18T09:11:44.379Z,18.33
2022-10-18T09:14:56.984Z,18.23
2022-10-18T09:17:30.693Z,18.32
2022-10-18T09:20:11.560Z,18.38
2022-10-18T09:22:51.017Z,18.36
2022-10-18T09:25:20.136Z,18.38
2022-10-18T09:27:52.948Z,18.40
2022-10-18T09:30:37.718Z,18.37
2022-10-18T09:33:17.121Z,18.49
2022-10-18T09:35:53.525Z,18.54
2022-10-18T09:38:26.359Z,18.60
2022-10-18T09:40:58.109Z,18.67
2022-10-18T09:43:33.504Z,18.72
2022-10-18T09:46:00.170Z,18.76
2022-10-18T09:48:29.196Z,18.64
2022-10-18T09:51:03.226Z,18.63
2022-10-18T09:53:36.944Z,18.68
2022-10-18T09:56:06.804Z,18.64
2022-10-18T09:58:42.993Z,18.68
2022-10-18T10:01:12.489Z,18.63
2022-10-18T10:03:39.365Z,18.74
2022-10-18T10:06:25.082Z,18.79
2022-10-18T10:08:57.230Z,18.82
2022-10-18T10:11:29.457Z,18.83
2022-10-18T10:13:57.951Z,18.78
2022-10-18T10:16:26.558Z,18.90
2022-10-18T10:18:54.108Z,18.98
2022-10-18T10:21:22.106Z,18.83
2022-10-18T10:23:53.636Z,19.02
2022-10-18T10:26:22.111Z,18.82
2022-10-18T10:28:49.251Z,18.93
2022-10-18T10:31:27.539Z,18.97
2022-10-18T10:34:00.770Z,18.92
2022-10-18T10:36:30.191Z,19.04
2022-10-18T10:39:04.973Z,19.06
2022-10-18T10:44:13.874Z,19.01
2022-10-18T10:46:40.509Z,19.05
2022-10-18T10:49:39.212Z,19.08
2022-10-18T10:52:25.851Z,18.55
2022-10-18T10:55:05.427Z,18.86
2022-10-18T10:57:38.594Z,18.86
2022-10-18T11:00:05.883Z,18.77
2022-10-18T11:02:34.626Z,18.72
2022-10-18T11:05:16.558Z,18.56
2022-10-18T11:07:46.256Z,18.46
2022-10-18T11:10:16.262Z,18.53
2022-10-18T11:12:44.924Z,18.50
2022-10-18T11:15:20.737Z,18.53
2022-10-18T11:17:56.355Z,18.60
2022-10-18T11:20:28.282Z,18.65
2022-10-18T11:23:02.732Z,18.72
2022-10-18T11:25:46.039Z,18.58
2022-10-18T11:28:19.499Z,18.75
2022-10-18T11:30:59.494Z,18.76
2022-10-18T11:34:03.397Z,18.78
2022-10-18T11:36:31.263Z,18.90
2022-10-18T11:39:08.934Z,19.01
2022-10-18T11:41:38.617Z,19.11
2022-10-18T11:44:18.827Z,19.11
2022-10-18T11:46:56.017Z,19.11
2022-10-18T11:49:45.219Z,18.98
2022-10-18T11:52:21.558Z,19.06
2022-10-18T11:55:04.933Z,19.19
2022-10-18T11:57:43.128Z,19.31
2022-10-18T12:00:22.380Z,19.31
2022-10-18T12:03:10.747Z,19.37
2022-10-18T12:05:39.345Z,19.59
2022-10-18T12:08:10.517Z,19.72
2022-10-18T12:10:59.909Z,19.83
2022-10-18T12:13:35.955Z,20.12
2022-10-18T12:16:04.979Z,20.30
2022-10-18T12:18:32.722Z,20.16
2022-10-18T12:21:00.822Z,20.33
2022-10-18T12:23:37.104Z,20.28
2022-10-18T12:26:07.602Z,20.18
2022-10-18T12:28:44.288Z,20.23
2022-10-18T12:31:20.561Z,20.15
2022-10-18T12:33:50.663Z,19.98
2022-10-18T12:36:35.711Z,19.96
2022-10-18T12:39:06.750Z,19.88
2022-10-18T12:41:35.932Z,19.65
2022-10-18T12:44:05.864Z,19.28
2022-10-18T12:46:47.080Z,19.23
2022-10-18T12:49:17.516Z,19.01
2022-10-18T12:51:52.624Z,19.07
2022-10-18T12:54:24.362Z,19.05
2022-10-18T12:56:52.564Z,19.14
2022-10-18T12:59:42.697Z,19.40
2022-10-18T13:02:20.719Z,19.76
2022-10-18T13:04:47.549Z,20.04
2022-10-18T13:07:21.678Z,20.17
2022-10-18T13:10:38.721Z,20.25
2022-10-18T13:13:40.542Z,20.26
2022-10-18T13:16:23.933Z,20.41
2022-10-18T13:18:54.936Z,20.48
2022-10-18T13:21:32.193Z,20.73
2022-10-18T13:24:18.157Z,21.13
2022-10-18T13:27:05.101Z,21.42
2022-10-18T13:29:57.143Z,21.85
2022-10-18T13:32:32.693Z,22.02
2022-10-18T13:34:59.833Z,22.18
2022-10-18T13:37:27.427Z,22.36
2022-10-18T13:40:15.456Z,22.15
2022-10-18T13:42:42.101Z,22.23
2022-10-18T13:45:44.374Z,21.99
2022-10-18T13:48:47.289Z,22.11
2022-10-18T13:51:42.774Z,22.27
2022-10-18T13:54:28.589Z,22.15
2022-10-18T13:57:16.723Z,22.00
2022-10-18T14:00:07.508Z,21.89
2022-10-18T14:02:59.925Z,21.32
2022-10-18T14:05:51.563Z,21.11
2022-10-18T14:08:24.393Z,21.04
2022-10-18T14:11:03.545Z,21.04
2022-10-18T14:13:36.690Z,21.00
2022-10-18T14:16:09.449Z,20.92
2022-10-18T14:18:41.050Z,20.80
2022-10-18T14:21:16.923Z,20.54
2022-10-18T14:23:47.968Z,20.44
2022-10-18T14:26:16.616Z,20.27
2022-10-18T14:29:00.272Z,20.25
2022-10-18T14:31:27.968Z,20.09
2022-10-18T14:33:58.404Z,19.96
2022-10-18T14:36:31.613Z,19.85
2022-10-18T14:39:01.509Z,19.84
2022-10-18T14:41:29.807Z,19.81
2022-10-18T14:44:16.658Z,19.75
2022-10-18T14:46:44.965Z,19.59
2022-10-18T14:49:12.737Z,19.38
2022-10-18T14:51:41.813Z,19.29
2022-10-18T14:56:46.424Z,19.20
2022-10-18T14:59:18.124Z,19.28
2022-10-18T15:01:54.377Z,19.33
2022-10-18T15:04:27.654Z,19.40
2022-10-18T15:06:55.818Z,19.42
2022-10-18T15:11:51.731Z,19.27
2022-10-18T15:14:19.788Z,19.43
2022-10-18T15:16:48.743Z,19.50
2022-10-18T15:19:31.417Z,19.51
2022-10-18T15:25:10.945Z,19.21
2022-10-18T15:27:39.483Z,19.13
2022-10-18T15:30:07.309Z,19.05
2022-10-18T15:32:34.225Z,18.96
2022-10-18T15:35:09.655Z,18.98
2022-10-18T15:37:40.329Z,18.73
2022-10-18T15:40:37.608Z,18.83
2022-10-18T15:43:25.858Z,18.72
2022-10-18T15:45:54.003Z,18.63
2022-10-18T15:48:23.558Z,18.54
2022-10-18T15:50:52.425Z,18.47
2022-10-18T15:53:32.544Z,18.39
2022-10-18T15:56:03.448Z,18.32
2022-10-18T15:58:38.958Z,18.23
2022-10-18T16:01:13.377Z,18.11
2022-10-18T16:03:40.271Z,18.03
2022-10-18T16:06:09.931Z,17.92
2022-10-18T16:08:40.127Z,17.62
2022-10-18T16:11:12.721Z,17.65
2022-10-18T16:13:39.500Z,17.62
2022-10-18T16:16:06.837Z,17.45
2022-10-18T16:18:33.425Z,17.37
2022-10-18T16:20:59.963Z,17.30
2022-10-18T16:23:27.742Z,17.23
2022-10-18T16:25:54.721Z,17.19
2022-10-18T16:28:24.516Z,17.10
2022-10-18T16:30:55.505Z,16.88
2022-10-18T16:33:22.324Z,16.85
2022-10-18T16:35:49.226Z,16.84
2022-10-18T16:38:31.223Z,16.77
2022-10-18T16:41:02.380Z,16.32
2022-10-18T16:43:30.378Z,16.40
2022-10-18T16:45:57.052Z,16.43
2022-10-18T16:48:24.921Z,16.35
2022-10-18T16:50:52.735Z,16.26
2022-10-18T16:53:19.339Z,16.13
2022-10-18T16:55:46.009Z,16.08
2022-10-18T16:58:16.337Z,15.98
2022-10-18T17:00:44.381Z,15.74
2022-10-18T17:03:10.882Z,15.78
2022-10-18T17:05:37.496Z,15.72
2022-10-18T17:08:04.246Z,15.60
2022-10-18T17:10:31.016Z,15.62
2022-10-18T17:12:57.548Z,15.50
2022-10-18T17:15:24.262Z,15.42
2022-10-18T17:17:52.116Z,15.29
2022-10-18T17:20:21.254Z,15.23
2022-10-18T17:22:47.938Z,15.10
2022-10-18T17:25:14.973Z,15.07
2022-10-18T17:27:41.816Z,14.90
2022-10-18T17:30:10.013Z,14.94
2022-10-18T17:32:36.523Z,14.85
2022-10-18T17:35:05.339Z,14.76
2022-10-18T17:37:32.411Z,14.66
2022-10-18T17:39:59.422Z,14.58
2022-10-18T17:42:25.934Z,14.52
2022-10-18T17:44:55.508Z,14.45
2022-10-18T17:47:24.173Z,14.29
2022-10-18T17:49:50.669Z,14.21
2022-10-18T17:52:18.654Z,14.04
2022-10-18T17:54:45.183Z,13.97
2022-10-18T17:57:11.776Z,13.98
2022-10-18T17:59:38.400Z,13.95
2022-10-18T18:02:05.001Z,13.87
2022-10-18T18:04:31.488Z,13.79
2022-10-18T18:06:58.029Z,13.56
2022-10-18T18:09:25.910Z,13.62
2022-10-18T18:11:52.705Z,13.54
2022-10-18T18:14:19.334Z,13.54
2022-10-18T18:16:46.914Z,13.59
2022-10-18T18:19:14.504Z,13.58
2022-10-18T18:21:42.558Z,13.52
2022-10-18T18:24:09.601Z,13.48
2022-10-18T18:26:39.200Z,13.38
2022-10-18T18:29:05.955Z,13.41
2022-10-18T18:31:37.734Z,13.34
2022-10-18T18:34:06.805Z,13.33
2022-10-18T18:36:33.391Z,13.28
2022-10-18T18:39:00.021Z,13.24
2022-10-18T18:41:28.378Z,13.28
2022-10-18T18:43:58.511Z,13.16
2022-10-18T18:46:27.272Z,13.15
2022-10-18T18:48:53.953Z,13.05
2022-10-18T18:51:21.559Z,13.06
2022-10-18T18:53:48.540Z,13.05
2022-10-18T18:56:17.767Z,13.14
2022-10-18T18:58:45.194Z,13.16
2022-10-18T19:01:14.973Z,13.13
2022-10-18T19:03:41.552Z,13.09
2022-10-18T19:06:11.067Z,12.48
2022-10-18T19:08:39.231Z,12.90
2022-10-18T19:11:09.026Z,13.05
2022-10-18T19:13:36.392Z,13.04
2022-10-18T19:16:22.586Z,13.03
2022-10-18T19:18:54.041Z,12.95
2022-10-18T19:21:21.506Z,12.89
2022-10-18T19:23:48.126Z,12.89
2022-10-18T19:26:31.914Z,12.89
2022-10-18T19:29:04.914Z,12.89
2022-10-18T19:31:33.269Z,12.92
2022-10-18T19:34:00.194Z,12.90
2022-10-18T19:36:27.875Z,12.72
2022-10-18T19:38:54.588Z,12.92
2022-10-18T19:41:21.596Z,12.88
2022-10-18T19:43:48.179Z,12.92
2022-10-18T19:46:14.917Z,12.91
2022-10-18T19:48:42.880Z,12.90
2022-10-18T19:51:10.021Z,12.88
2022-10-18T19:53:37.436Z,12.86
2022-10-18T19:56:05.981Z,12.80
2022-10-18T19:58:32.917Z,12.80
2022-10-18T20:00:59.861Z,12.54
2022-10-18T20:03:27.649Z,12.66
2022-10-18T20:05:56.496Z,12.78
2022-10-18T20:08:23.410Z,12.74
2022-10-18T20:10:50.553Z,12.34
2022-10-18T20:13:17.596Z,12.49
2022-10-18T20:15:46.405Z,12.59
2022-10-18T20:18:12.930Z,12.53
2022-10-18T20:20:39.509Z,12.55
2022-10-18T20:23:07.402Z,12.54
2022-10-18T20:25:34.048Z,12.27
2022-10-18T20:28:00.621Z,12.49
2022-10-18T20:30:27.341Z,12.43
2022-10-18T20:32:53.913Z,12.44
2022-10-18T20:35:21.217Z,12.45
2022-10-18T20:37:49.060Z,12.44
2022-10-18T20:40:17.058Z,12.40
2022-10-18T20:42:43.614Z,12.29
2022-10-18T20:45:10.817Z,12.31
2022-10-18T20:47:37.319Z,12.32
2022-10-18T20:50:04.757Z,12.30
2022-10-18T20:52:31.279Z,12.24
2022-10-18T20:54:57.832Z,12.23
2022-10-18T20:57:25.766Z,12.30
2022-10-18T20:59:52.372Z,12.29
2022-10-18T21:02:18.868Z,12.24
2022-10-18T21:04:45.449Z,12.09
2022-10-18T21:07:11.950Z,12.15
2022-10-18T21:09:38.609Z,12.08
2022-10-18T21:12:05.799Z,12.13
2022-10-18T21:14:33.788Z,12.00
2022-10-18T21:17:00.291Z,11.94
2022-10-18T21:19:27.414Z,11.89
2022-10-18T21:21:56.286Z,12.07
2022-10-18T21:24:24.230Z,12.06
2022-10-18T21:26:50.736Z,12.08
2022-10-18T21:29:21.928Z,12.06
2022-10-18T21:31:53.340Z,12.08
2022-10-18T21:34:20.073Z,11.96
2022-10-18T21:36:47.730Z,11.99
2022-10-18T21:39:16.929Z,11.81
2022-10-18T21:41:44.007Z,11.94
2022-10-18T21:44:11.065Z,11.62
2022-10-18T21:46:38.595Z,11.92
2022-10-18T21:49:08.980Z,11.90
2022-10-18T21:51:35.620Z,11.87
2022-10-18T21:54:02.128Z,11.83
2022-10-18T21:56:30.713Z,11.75
2022-10-18T21:58:57.863Z,11.82
2022-10-18T22:01:26.182Z,11.79
2022-10-18T22:03:54.525Z,11.79
2022-10-18T22:06:23.429Z,11.77
2022-10-18T22:08:51.561Z,11.71
2022-10-18T22:11:20.469Z,11.74
2022-10-18T22:13:47.245Z,11.73
2022-10-18T22:16:15.820Z,11.74
2022-10-18T22:18:43.232Z,11.77
2022-10-18T22:21:11.554Z,11.62
2022-10-18T22:23:41.368Z,11.65
2022-10-18T22:26:10.616Z,11.06
2022-10-18T22:28:37.872Z,11.70
2022-10-18T22:31:04.816Z,11.44
2022-10-18T22:33:31.747Z,11.57
2022-10-18T22:35:58.393Z,11.50
2022-10-18T22:38:25.167Z,11.41
2022-10-18T22:40:53.173Z,11.38
2022-10-18T22:43:19.672Z,11.32
2022-10-18T22:45:46.207Z,11.32
2022-10-18T22:48:12.875Z,11.33
2022-10-18T22:50:39.455Z,11.29
2022-10-18T22:53:05.962Z,11.22
2022-10-18T22:55:32.620Z,11.16
2022-10-18T22:58:00.461Z,11.16
2022-10-18T23:00:27.180Z,10.97
2022-10-18T23:02:53.697Z,11.10
2022-10-18T23:05:20.268Z,11.05
2022-10-18T23:07:49.990Z,11.08
2022-10-18T23:10:17.046Z,11.07
2022-10-18T23:12:44.075Z,11.04
2022-10-18T23:15:12.259Z,10.77
2022-10-18T23:17:38.785Z,11.00
2022-10-18T23:20:05.985Z,10.98
2022-10-18T23:22:32.752Z,10.97
2022-10-18T23:24:59.503Z,11.00
2022-10-18T23:27:26.054Z,10.97
2022-10-18T23:29:52.611Z,10.94
2022-10-18T23:32:20.496Z,10.92
2022-10-18T23:34:47.042Z,10.81
2022-10-18T23:37:13.615Z,10.90
2022-10-18T23:39:40.348Z,10.86
2022-10-18T23:42:06.837Z,10.82
2022-10-18T23:44:33.520Z,10.81
2022-10-18T23:47:00.032Z,10.77
2022-10-18T23:49:27.924Z,10.78
2022-10-18T23:51:54.439Z,10.52
2022-10-18T23:54:21.223Z,10.73
2022-10-18T23:56:47.748Z,10.72
2022-10-18T23:59:14.586Z,10.67
